createdAt,value
2019-01-28T00:00:08.798Z,0
2019-01-28T00:01:18.925Z,0
2019-01-28T00:02:28.975Z,0
2019-01-28T00:03:39.039Z,0
2019-01-28T00:04:48.637Z,0
2019-01-28T00:05:58.684Z,0
2019-01-28T00:07:10.623Z,0
2019-01-28T00:08:20.747Z,0
2019-01-28T00:09:30.801Z,0
2019-01-28T00:10:40.987Z,0
2019-01-28T00:11:51.052Z,0
2019-01-28T00:13:01.113Z,0
2019-01-28T00:14:11.169Z,0
2019-01-28T00:15:21.242Z,0
2019-01-28T00:16:31.364Z,0
2019-01-28T00:17:41.776Z,0
2019-01-28T00:18:51.864Z,0
2019-01-28T00:20:01.923Z,0
2019-01-28T00:21:11.975Z,0
2019-01-28T00:22:22.037Z,0
2019-01-28T00:23:32.182Z,0
2019-01-28T00:24:41.987Z,0
2019-01-28T00:25:52.134Z,0
2019-01-28T00:27:01.951Z,0
2019-01-28T00:28:12.032Z,0
2019-01-28T00:29:22.075Z,0
2019-01-28T00:30:32.138Z,0
2019-01-28T00:31:41.962Z,0
2019-01-28T00:32:52.127Z,0
2019-01-28T00:34:02.183Z,0
2019-01-28T00:35:11.972Z,0
2019-01-28T00:36:21.523Z,0
2019-01-28T00:37:31.343Z,0
2019-01-28T00:38:41.147Z,0
2019-01-28T00:39:50.958Z,0
2019-01-28T00:41:01.019Z,0
2019-01-28T00:42:10.562Z,0
2019-01-28T00:43:20.625Z,0
2019-01-28T00:44:30.430Z,0
2019-01-28T00:45:40.728Z,0
2019-01-28T00:46:50.788Z,0
2019-01-28T00:48:02.842Z,0
2019-01-28T00:49:13.123Z,0
2019-01-28T00:50:23.180Z,0
2019-01-28T00:51:33.291Z,0
2019-01-28T00:52:43.568Z,0
2019-01-28T00:53:53.612Z,0
2019-01-28T00:55:04.449Z,0
2019-01-28T00:56:14.504Z,0
2019-01-28T00:57:24.593Z,0
2019-01-28T00:58:34.922Z,0
2019-01-28T00:59:44.977Z,0
2019-01-28T01:00:55.030Z,0
2019-01-28T01:02:06.604Z,0
2019-01-28T01:03:16.929Z,0
2019-01-28T01:04:26.990Z,0
2019-01-28T01:05:37.063Z,0
2019-01-28T01:06:47.123Z,0
2019-01-28T01:07:57.187Z,0
2019-01-28T01:09:09.812Z,0
2019-01-28T01:10:19.595Z,0
2019-01-28T01:11:29.728Z,0
2019-01-28T01:12:39.528Z,0
2019-01-28T01:13:49.573Z,0
2019-01-28T01:14:59.434Z,0
2019-01-28T01:16:09.486Z,0
2019-01-28T01:17:19.580Z,0
2019-01-28T01:18:29.397Z,0
2019-01-28T01:19:39.219Z,0
2019-01-28T01:20:49.260Z,0
2019-01-28T01:21:59.517Z,0
2019-01-28T01:23:09.578Z,0
2019-01-28T01:24:19.420Z,0
2019-01-28T01:25:29.221Z,0
2019-01-28T01:26:38.826Z,0
2019-01-28T01:27:48.875Z,0
2019-01-28T01:28:58.992Z,0
2019-01-28T01:30:09.245Z,0
2019-01-28T01:31:19.506Z,0
2019-01-28T01:32:29.616Z,0
2019-01-28T01:33:39.664Z,0
2019-01-28T01:34:49.710Z,0
2019-01-28T01:35:59.496Z,0
2019-01-28T01:37:09.658Z,0
2019-01-28T01:38:19.695Z,0
2019-01-28T01:39:29.824Z,0
2019-01-28T01:40:40.081Z,0
2019-01-28T01:41:50.153Z,0
2019-01-28T01:43:00.355Z,0
2019-01-28T01:44:10.567Z,0
2019-01-28T01:45:20.638Z,0
2019-01-28T01:46:30.677Z,0
2019-01-28T01:47:40.728Z,0
2019-01-28T01:48:50.795Z,0
2019-01-28T01:50:01.340Z,0
2019-01-28T01:51:11.390Z,0
2019-01-28T01:52:21.469Z,0
2019-01-28T01:53:31.256Z,0
2019-01-28T01:54:41.315Z,0
2019-01-28T01:55:51.411Z,0
2019-01-28T01:57:01.027Z,0
2019-01-28T01:58:10.819Z,0
2019-01-28T01:59:20.883Z,0
2019-01-28T02:00:31.490Z,0
2019-01-28T02:01:41.300Z,0
2019-01-28T02:02:51.351Z,0
2019-01-28T02:04:01.152Z,0
2019-01-28T02:05:11.218Z,0
2019-01-28T02:06:21.276Z,0
2019-01-28T02:07:31.394Z,0
2019-01-28T02:08:41.690Z,0
2019-01-28T02:09:51.742Z,0
2019-01-28T02:11:01.792Z,0
2019-01-28T02:12:11.854Z,0
2019-01-28T02:13:21.917Z,0
2019-01-28T02:14:32.011Z,0
2019-01-28T02:15:42.265Z,0
2019-01-28T02:16:52.074Z,0
2019-01-28T02:18:02.133Z,0
2019-01-28T02:19:12.241Z,4
2019-01-28T02:20:22.300Z,4
2019-01-28T02:21:32.346Z,4
2019-01-28T02:22:42.141Z,4
2019-01-28T02:23:51.938Z,4
2019-01-28T02:25:02.047Z,4
2019-01-28T02:26:12.104Z,4
2019-01-28T02:27:21.872Z,4
2019-01-28T02:28:31.955Z,4
2019-01-28T02:29:41.968Z,4
2019-01-28T02:30:52.021Z,4
2019-01-28T02:32:02.070Z,4
2019-01-28T02:33:12.131Z,4
2019-01-28T02:34:21.954Z,4
2019-01-28T02:35:31.744Z,4
2019-01-28T02:36:41.855Z,4
2019-01-28T02:37:51.925Z,4
2019-01-28T02:39:02.013Z,4
2019-01-28T02:40:11.803Z,4
2019-01-28T02:41:22.557Z,4
2019-01-28T02:42:33.705Z,4
2019-01-28T02:43:43.769Z,4
2019-01-28T02:44:53.832Z,4
2019-01-28T02:46:03.758Z,4
2019-01-28T02:47:13.539Z,4
2019-01-28T02:48:23.641Z,4
2019-01-28T02:49:33.726Z,4
2019-01-28T02:50:43.782Z,4
2019-01-28T02:51:54.141Z,4
2019-01-28T02:53:04.222Z,4
2019-01-28T02:54:14.286Z,4
2019-01-28T02:55:24.627Z,4
2019-01-28T02:56:34.681Z,4
2019-01-28T02:57:44.728Z,4
2019-01-28T02:58:54.813Z,4
2019-01-28T03:00:04.747Z,4
2019-01-28T03:01:15.028Z,4
2019-01-28T03:02:25.114Z,4
2019-01-28T03:34:36.523Z,4
2019-01-28T03:35:46.587Z,4
2019-01-28T03:36:56.402Z,4
2019-01-28T03:38:06.444Z,4
2019-01-28T03:39:16.309Z,4
2019-01-28T03:40:25.889Z,4
2019-01-28T03:41:36.230Z,4
2019-01-28T03:42:46.292Z,4
2019-01-28T03:43:56.328Z,4
2019-01-28T03:45:05.902Z,4
2019-01-28T03:46:17.220Z,4
2019-01-28T03:47:27.276Z,4
2019-01-28T03:48:37.080Z,4
2019-01-28T03:49:47.125Z,4
2019-01-28T03:50:57.399Z,4
2019-01-28T03:52:07.566Z,4
2019-01-28T03:53:17.355Z,4
2019-01-28T03:54:27.466Z,4
2019-01-28T03:55:37.537Z,4
2019-01-28T03:56:47.600Z,4
2019-01-28T03:57:57.412Z,4
2019-01-28T03:59:07.529Z,4
2019-01-28T04:00:17.700Z,4
2019-01-28T04:01:28.952Z,0
2019-01-28T04:02:38.991Z,0
2019-01-28T04:03:49.060Z,0
2019-01-28T04:04:59.122Z,0
2019-01-28T04:06:10.366Z,0
2019-01-28T04:07:20.170Z,0
2019-01-28T04:08:30.238Z,0
2019-01-28T04:09:40.130Z,0
2019-01-28T04:10:50.188Z,0
2019-01-28T04:12:00.483Z,0
2019-01-28T04:13:10.543Z,0
2019-01-28T04:14:20.366Z,0
2019-01-28T04:15:32.504Z,0
2019-01-28T04:16:42.467Z,0
2019-01-28T04:17:52.534Z,0
2019-01-28T04:19:02.528Z,0
2019-01-28T04:20:12.608Z,0
2019-01-28T04:21:22.677Z,0
2019-01-28T04:22:32.472Z,0
2019-01-28T04:23:42.544Z,0
2019-01-28T04:24:52.596Z,0
2019-01-28T04:26:03.146Z,0
2019-01-28T04:27:13.256Z,0
2019-01-28T04:28:23.300Z,0
2019-01-28T04:29:33.365Z,0
2019-01-28T04:30:44.332Z,0
2019-01-28T04:31:54.432Z,0
2019-01-28T04:33:04.501Z,0
2019-01-28T04:34:14.544Z,0
2019-01-28T04:35:24.638Z,0
2019-01-28T04:36:34.471Z,0
2019-01-28T04:37:44.652Z,0
2019-01-28T04:38:56.145Z,0
2019-01-28T04:40:06.028Z,0
2019-01-28T04:41:16.093Z,0
2019-01-28T04:42:26.150Z,0
2019-01-28T04:43:36.215Z,0
2019-01-28T04:44:46.283Z,0
2019-01-28T04:45:56.551Z,0
2019-01-28T04:47:06.711Z,0
2019-01-28T04:48:16.527Z,0
2019-01-28T04:49:26.608Z,0
2019-01-28T04:50:36.716Z,0
2019-01-28T04:51:47.013Z,0
2019-01-28T04:52:57.163Z,0
2019-01-28T04:54:07.235Z,0
2019-01-28T04:55:17.298Z,0
2019-01-28T04:56:27.382Z,0
2019-01-28T04:57:36.994Z,0
2019-01-28T04:58:47.041Z,0
2019-01-28T04:59:57.511Z,0
2019-01-28T05:01:07.302Z,0
2019-01-28T05:02:17.449Z,0
2019-01-28T05:03:27.247Z,0
2019-01-28T05:04:37.329Z,0
2019-01-28T05:05:47.150Z,0
2019-01-28T05:06:57.220Z,0
2019-01-28T05:08:07.317Z,0
2019-01-28T05:09:16.918Z,0
2019-01-28T05:10:27.006Z,0
2019-01-28T05:11:37.078Z,0
2019-01-28T05:12:47.134Z,0
2019-01-28T05:13:57.348Z,0
2019-01-28T05:15:07.570Z,0
2019-01-28T05:16:17.403Z,0
2019-01-28T05:17:27.463Z,0
2019-01-28T05:18:37.525Z,0
2019-01-28T05:19:47.902Z,0
2019-01-28T05:20:57.976Z,0
2019-01-28T05:22:08.035Z,0
2019-01-28T05:23:18.468Z,0
2019-01-28T05:24:28.277Z,0
2019-01-28T05:25:39.430Z,0
2019-01-28T05:26:49.481Z,4
2019-01-28T05:27:59.250Z,4
2019-01-28T05:29:09.335Z,0
2019-01-28T05:30:19.395Z,0
2019-01-28T05:31:29.507Z,4
2019-01-28T05:32:39.566Z,4
2019-01-28T05:33:49.675Z,4
2019-01-28T05:34:59.963Z,0
2019-01-28T05:36:10.966Z,0
2019-01-28T05:37:21.084Z,0
2019-01-28T05:38:31.156Z,4
2019-01-28T05:39:43.069Z,4
2019-01-28T05:40:52.942Z,4
2019-01-28T05:42:04.460Z,4
2019-01-28T05:43:14.509Z,4
2019-01-28T05:44:24.584Z,4
2019-01-28T05:45:35.096Z,4
2019-01-28T05:46:45.153Z,4
2019-01-28T05:47:55.236Z,4
2019-01-28T05:49:07.427Z,0
2019-01-28T05:50:17.488Z,0
2019-01-28T05:51:28.145Z,0
2019-01-28T05:52:38.224Z,0
2019-01-28T05:53:48.273Z,0
2019-01-28T05:54:58.380Z,0
2019-01-28T05:56:08.440Z,0
2019-01-28T05:57:18.516Z,0
2019-01-28T05:58:28.582Z,0
2019-01-28T05:59:38.388Z,0
2019-01-28T06:00:48.198Z,0
2019-01-28T06:01:58.255Z,4
2019-01-28T06:03:08.097Z,4
2019-01-28T06:04:17.973Z,4
2019-01-28T06:05:28.054Z,4
2019-01-28T06:06:38.166Z,4
2019-01-28T06:07:47.961Z,4
2019-01-28T06:08:57.817Z,8
2019-01-28T06:10:10.562Z,4
2019-01-28T06:11:20.367Z,8
2019-01-28T06:12:30.488Z,4
2019-01-28T06:13:40.554Z,8
2019-01-28T06:14:50.375Z,8
2019-01-28T06:16:00.178Z,8
2019-01-28T06:17:10.254Z,16
2019-01-28T06:18:20.051Z,16
2019-01-28T06:19:30.099Z,16
2019-01-28T06:20:40.154Z,20
2019-01-28T06:21:50.322Z,24
2019-01-28T06:23:00.120Z,28
2019-01-28T06:24:10.304Z,36
2019-01-28T06:25:20.393Z,40
2019-01-28T06:26:30.466Z,40
2019-01-28T06:27:40.603Z,44
2019-01-28T06:28:50.913Z,52
2019-01-28T06:30:03.529Z,56
2019-01-28T06:31:13.329Z,60
2019-01-28T06:32:23.115Z,68
2019-01-28T06:33:32.913Z,72
2019-01-28T06:34:42.983Z,76
2019-01-28T06:35:53.050Z,84
2019-01-28T06:37:03.090Z,96
2019-01-28T06:38:13.507Z,104
2019-01-28T06:39:23.600Z,112
2019-01-28T06:40:33.136Z,120
2019-01-28T06:41:43.198Z,124
2019-01-28T06:42:52.983Z,124
2019-01-28T06:44:04.542Z,124
2019-01-28T06:45:14.638Z,136
2019-01-28T06:46:24.745Z,136
2019-01-28T06:47:34.558Z,148
2019-01-28T06:48:44.722Z,160
2019-01-28T06:49:54.775Z,164
2019-01-28T06:51:04.687Z,172
2019-01-28T06:52:15.079Z,184
2019-01-28T06:53:25.156Z,216
2019-01-28T06:54:34.985Z,236
2019-01-28T06:55:45.109Z,256
2019-01-28T06:56:55.022Z,240
2019-01-28T06:58:05.308Z,264
2019-01-28T06:59:15.369Z,284
2019-01-28T07:00:26.005Z,308
2019-01-28T07:01:35.805Z,312
2019-01-28T07:02:45.626Z,324
2019-01-28T07:03:55.419Z,320
2019-01-28T07:05:05.275Z,340
2019-01-28T07:06:15.310Z,348
2019-01-28T07:07:25.417Z,336
2019-01-28T07:08:35.576Z,360
2019-01-28T07:09:45.657Z,392
2019-01-28T07:10:55.201Z,388
2019-01-28T07:12:05.268Z,412
2019-01-28T07:13:15.389Z,448
2019-01-28T07:14:25.202Z,488
2019-01-28T07:15:35.307Z,504
2019-01-28T07:16:45.565Z,552
2019-01-28T07:18:03.302Z,580
2019-01-28T07:19:13.355Z,576
2019-01-28T07:20:23.612Z,616
2019-01-28T07:21:33.469Z,624
2019-01-28T07:22:44.375Z,624
2019-01-28T07:23:54.424Z,672
2019-01-28T07:25:04.940Z,732
2019-01-28T07:26:14.754Z,776
2019-01-28T07:27:24.878Z,784
2019-01-28T07:28:34.472Z,752
2019-01-28T07:29:44.528Z,828
2019-01-28T07:30:54.587Z,780
2019-01-28T07:32:04.991Z,764
2019-01-28T07:33:15.050Z,736
2019-01-28T07:34:25.122Z,748
2019-01-28T07:35:35.169Z,760
2019-01-28T07:36:45.309Z,804
2019-01-28T07:37:54.873Z,804
2019-01-28T07:39:05.707Z,864
2019-01-28T07:40:15.399Z,904
2019-01-28T07:41:25.208Z,904
2019-01-28T07:42:35.043Z,904
2019-01-28T07:43:45.133Z,880
2019-01-28T07:44:55.283Z,852
2019-01-28T07:46:05.357Z,864
2019-01-28T07:47:15.419Z,880
2019-01-28T07:48:25.232Z,940
2019-01-28T07:49:35.313Z,1020
2019-01-28T07:50:45.115Z,1036
2019-01-28T07:51:54.908Z,1052
2019-01-28T07:53:05.220Z,1048
2019-01-28T07:54:15.030Z,1084
2019-01-28T07:55:25.172Z,1128
2019-01-28T07:56:35.253Z,1216
2019-01-28T07:57:45.321Z,1320
2019-01-28T07:58:55.587Z,1260
2019-01-28T08:00:07.285Z,1304
2019-01-28T08:01:17.522Z,1312
2019-01-28T08:02:27.878Z,1232
2019-01-28T08:03:37.903Z,1148
2019-01-28T08:04:47.722Z,1248
2019-01-28T08:05:57.529Z,1336
2019-01-28T08:07:08.219Z,1392
2019-01-28T08:08:18.472Z,1384
2019-01-28T08:09:28.587Z,1376
2019-01-28T08:10:38.429Z,1416
2019-01-28T08:11:48.484Z,1472
2019-01-28T08:12:58.032Z,1488
2019-01-28T08:14:09.510Z,1528
2019-01-28T08:15:19.331Z,1572
2019-01-28T08:16:29.123Z,1596
2019-01-28T08:17:39.024Z,1632
2019-01-28T08:18:48.831Z,1628
2019-01-28T08:19:58.890Z,1604
2019-01-28T08:21:08.983Z,1608
2019-01-28T08:22:19.827Z,1624
2019-01-28T08:23:29.630Z,1624
2019-01-28T08:24:39.705Z,1632
2019-01-28T08:25:49.825Z,1660
2019-01-28T08:26:59.985Z,1708
2019-01-28T08:28:10.301Z,1672
2019-01-28T08:29:20.345Z,1736
2019-01-28T08:30:30.399Z,1772
2019-01-28T08:31:40.470Z,1732
2019-01-28T08:32:50.557Z,1812
2019-01-28T08:34:00.984Z,1892
2019-01-28T08:35:11.132Z,1900
2019-01-28T08:36:21.196Z,1944
2019-01-28T08:37:31.299Z,1972
2019-01-28T08:38:41.385Z,1968
2019-01-28T08:39:50.694Z,2032
2019-01-28T08:41:00.496Z,2100
2019-01-28T08:42:10.611Z,2172
2019-01-28T08:43:21.931Z,2248
2019-01-28T08:44:31.994Z,2300
2019-01-28T08:45:42.094Z,2364
2019-01-28T08:46:51.899Z,2376
2019-01-28T08:48:02.322Z,2300
2019-01-28T08:49:12.445Z,2288
2019-01-28T08:50:22.518Z,2276
2019-01-28T08:51:32.611Z,2268
2019-01-28T08:52:42.712Z,2304
2019-01-28T08:53:52.755Z,2304
2019-01-28T08:55:02.326Z,2188
2019-01-28T08:56:19.296Z,2180
2019-01-28T08:57:31.131Z,2264
2019-01-28T08:58:41.243Z,2240
2019-01-28T08:59:51.549Z,2216
2019-01-28T09:01:01.355Z,2132
2019-01-28T09:02:11.441Z,2088
2019-01-28T09:03:21.276Z,2096
2019-01-28T09:04:31.329Z,2160
2019-01-28T09:05:41.390Z,2196
2019-01-28T09:06:51.494Z,2180
2019-01-28T09:08:03.524Z,2156
2019-01-28T09:09:13.589Z,2128
2019-01-28T09:10:23.445Z,2092
2019-01-28T09:11:33.581Z,2148
2019-01-28T09:12:43.386Z,2168
2019-01-28T09:13:54.998Z,2216
2019-01-28T09:15:05.388Z,2216
2019-01-28T09:16:15.461Z,2208
2019-01-28T09:17:25.325Z,2152
2019-01-28T09:18:35.137Z,2048
2019-01-28T09:19:45.208Z,2020
2019-01-28T09:20:55.268Z,1976
2019-01-28T09:22:05.353Z,1980
2019-01-28T09:23:15.424Z,2104
2019-01-28T09:24:25.675Z,2092
2019-01-28T09:25:35.735Z,2148
2019-01-28T09:26:46.019Z,2060
2019-01-28T09:27:56.091Z,2044
2019-01-28T09:29:06.163Z,2020
2019-01-28T09:30:16.232Z,2024
2019-01-28T09:31:26.543Z,2012
2019-01-28T09:32:36.598Z,1992
2019-01-28T09:33:46.675Z,1976
2019-01-28T09:34:56.797Z,1980
2019-01-28T09:36:07.877Z,2036
2019-01-28T09:37:19.120Z,2096
2019-01-28T09:38:29.738Z,2108
2019-01-28T09:39:39.806Z,2084
2019-01-28T09:40:50.097Z,2016
2019-01-28T09:42:00.337Z,1964
2019-01-28T09:43:10.389Z,1900
2019-01-28T09:44:20.448Z,1840
2019-01-28T09:45:30.516Z,1784
2019-01-28T09:46:40.637Z,1832
2019-01-28T09:47:50.700Z,1872
2019-01-28T09:49:00.773Z,1888
2019-01-28T09:50:10.923Z,1892
2019-01-28T09:51:20.972Z,1908
2019-01-28T09:52:31.022Z,1936
2019-01-28T09:53:41.136Z,1932
2019-01-28T09:54:51.225Z,1952
2019-01-28T09:56:01.532Z,2024
2019-01-28T09:57:11.588Z,2124
2019-01-28T09:58:21.739Z,2188
2019-01-28T09:59:31.821Z,2216
2019-01-28T10:00:41.620Z,2244
2019-01-28T10:01:51.460Z,2252
2019-01-28T10:03:01.511Z,2212
2019-01-28T10:04:11.565Z,2228
2019-01-28T10:05:21.371Z,2324
2019-01-28T10:06:31.220Z,2448
2019-01-28T10:07:41.556Z,2548
2019-01-28T10:08:51.656Z,2620
2019-01-28T10:10:02.311Z,2680
2019-01-28T10:11:12.120Z,2724
2019-01-28T10:12:22.244Z,2768
2019-01-28T10:13:32.582Z,2808
2019-01-28T10:14:42.625Z,2820
2019-01-28T10:15:52.707Z,2836
2019-01-28T10:17:02.770Z,2888
2019-01-28T10:18:12.827Z,2960
2019-01-28T10:19:22.942Z,3024
2019-01-28T10:20:33.038Z,3096
2019-01-28T10:21:43.098Z,3196
2019-01-28T10:22:53.184Z,3348
2019-01-28T10:24:03.235Z,3516
2019-01-28T10:25:12.935Z,3612
2019-01-28T10:26:23.188Z,3628
2019-01-28T10:27:33.471Z,3588
2019-01-28T10:28:43.706Z,3564
2019-01-28T10:29:54.078Z,3616
2019-01-28T10:31:03.885Z,3716
2019-01-28T10:32:13.801Z,3780
2019-01-28T10:33:23.948Z,3800
2019-01-28T10:34:34.268Z,3792
2019-01-28T10:35:44.058Z,3796
2019-01-28T10:36:54.115Z,3816
2019-01-28T10:38:04.235Z,3860
2019-01-28T10:39:13.781Z,3912
2019-01-28T10:40:23.859Z,3956
2019-01-28T10:41:33.685Z,4020
2019-01-28T10:42:44.028Z,4084
2019-01-28T10:43:54.101Z,4148
2019-01-28T10:45:04.193Z,4216
2019-01-28T10:46:13.750Z,4260
2019-01-28T10:47:23.551Z,4288
2019-01-28T10:48:33.731Z,4324
2019-01-28T10:49:43.639Z,4368
2019-01-28T10:50:53.697Z,4452
2019-01-28T10:52:05.406Z,4496
2019-01-28T10:53:15.471Z,4492
2019-01-28T10:54:25.348Z,4484
2019-01-28T10:55:35.144Z,4532
2019-01-28T10:56:45.191Z,4628
2019-01-28T10:57:55.248Z,4760
2019-01-28T10:59:07.877Z,4916
2019-01-28T11:00:20.937Z,5044
2019-01-28T11:01:31.018Z,5040
2019-01-28T11:02:41.105Z,4904
2019-01-28T11:03:51.143Z,4720
2019-01-28T11:05:01.222Z,4604
2019-01-28T11:06:11.393Z,4544
2019-01-28T11:07:21.464Z,4516
2019-01-28T11:08:31.479Z,4496
2019-01-28T11:09:41.642Z,4512
2019-01-28T11:10:52.153Z,4616
2019-01-28T11:12:02.310Z,4808
2019-01-28T11:13:12.414Z,5048
2019-01-28T11:14:22.351Z,5228
2019-01-28T11:15:33.026Z,5312
2019-01-28T11:16:43.332Z,5276
2019-01-28T11:17:53.345Z,5236
2019-01-28T11:19:07.271Z,5212
2019-01-28T11:20:17.567Z,5204
2019-01-28T11:21:27.964Z,5176
2019-01-28T11:22:38.184Z,5140
2019-01-28T11:23:48.558Z,5068
2019-01-28T11:24:58.829Z,4960
2019-01-28T11:26:10.749Z,4860
2019-01-28T11:27:20.981Z,4784
2019-01-28T11:28:31.550Z,4736
2019-01-28T11:29:41.975Z,4712
2019-01-28T11:30:52.466Z,4708
2019-01-28T11:32:04.373Z,4708
2019-01-28T11:33:14.433Z,4756
2019-01-28T11:34:24.485Z,4804
2019-01-28T11:35:35.670Z,4824
2019-01-28T11:36:46.097Z,4800
2019-01-28T11:37:56.235Z,4760
2019-01-28T11:39:06.637Z,4736
2019-01-28T11:40:17.183Z,4764
2019-01-28T11:41:27.854Z,4816
2019-01-28T11:42:38.019Z,4868
2019-01-28T11:43:48.324Z,4928
2019-01-28T11:44:58.936Z,4864
2019-01-28T11:46:09.139Z,4772
2019-01-28T11:47:19.313Z,4680
2019-01-28T11:48:29.886Z,4620
2019-01-28T11:49:41.112Z,4592
2019-01-28T11:50:58.489Z,4608
2019-01-28T11:52:08.606Z,4672
2019-01-28T11:53:18.690Z,4772
2019-01-28T11:54:28.770Z,4868
2019-01-28T11:55:38.897Z,4924
2019-01-28T11:56:48.952Z,4920
2019-01-28T11:57:58.853Z,4860
2019-01-28T11:59:11.196Z,4792
2019-01-28T12:00:23.461Z,4732
2019-01-28T12:01:33.824Z,4716
2019-01-28T12:02:43.887Z,4736
2019-01-28T12:03:54.217Z,4776
2019-01-28T12:05:04.831Z,4844
2019-01-28T12:06:14.629Z,4876
2019-01-28T12:07:24.434Z,4868
2019-01-28T12:08:34.256Z,4804
2019-01-28T12:09:44.313Z,4704
2019-01-28T12:10:54.102Z,4616
2019-01-28T12:12:04.177Z,4576
2019-01-28T12:13:14.445Z,4560
2019-01-28T12:14:24.582Z,4552
2019-01-28T12:15:34.388Z,4516
2019-01-28T12:16:44.478Z,4476
2019-01-28T12:17:54.566Z,4468
2019-01-28T12:19:04.902Z,4476
2019-01-28T12:20:23.718Z,4452
2019-01-28T12:21:33.679Z,4416
2019-01-28T12:22:43.502Z,4392
2019-01-28T12:23:53.582Z,4352
2019-01-28T12:25:04.284Z,4312
2019-01-28T12:26:14.355Z,4256
2019-01-28T12:27:24.198Z,4176
2019-01-28T12:28:34.258Z,4076
2019-01-28T12:29:44.072Z,4012
2019-01-28T12:30:54.178Z,4000
2019-01-28T12:32:04.246Z,4064
2019-01-28T12:33:14.071Z,4160
2019-01-28T12:34:24.344Z,4256
2019-01-28T12:35:34.401Z,4328
2019-01-28T12:36:44.461Z,4372
2019-01-28T12:37:54.718Z,4352
2019-01-28T12:39:04.778Z,4248
2019-01-28T12:40:14.941Z,4084
2019-01-28T12:41:25.035Z,3920
2019-01-28T12:42:34.846Z,3796
2019-01-28T12:43:44.646Z,3712
2019-01-28T12:44:54.716Z,3656
2019-01-28T12:46:05.882Z,3612
2019-01-28T12:47:15.973Z,3568
2019-01-28T12:48:28.018Z,3508
2019-01-28T12:49:38.109Z,3468
2019-01-28T12:50:48.214Z,3440
2019-01-28T12:51:58.331Z,3436
2019-01-28T12:53:08.460Z,3460
2019-01-28T12:54:18.560Z,3500
2019-01-28T12:55:28.642Z,3556
2019-01-28T12:56:38.834Z,3596
2019-01-28T12:57:49.174Z,3592
2019-01-28T12:58:58.973Z,3540
2019-01-28T13:00:16.785Z,3436
2019-01-28T13:01:27.340Z,3336
2019-01-28T13:02:36.882Z,3228
2019-01-28T13:03:46.971Z,3128
2019-01-28T13:04:57.035Z,3044
2019-01-28T13:06:07.096Z,2968
2019-01-28T13:07:17.158Z,2916
2019-01-28T13:08:27.830Z,2892
2019-01-28T13:09:37.850Z,2888
2019-01-28T13:10:47.763Z,2876
2019-01-28T13:11:57.816Z,2856
2019-01-28T13:13:08.040Z,2840
2019-01-28T13:14:18.106Z,2832
2019-01-28T13:15:28.173Z,2816
2019-01-28T13:16:38.021Z,2800
2019-01-28T13:17:47.814Z,2792
2019-01-28T13:18:57.968Z,2804
2019-01-28T13:20:08.334Z,2832
2019-01-28T13:21:18.150Z,2868
2019-01-28T13:22:28.268Z,2920
2019-01-28T13:23:38.397Z,2960
2019-01-28T13:24:48.506Z,2948
2019-01-28T13:25:58.562Z,2880
2019-01-28T13:27:09.972Z,2788
2019-01-28T13:28:19.526Z,2720
2019-01-28T13:29:29.612Z,2676
2019-01-28T13:30:39.737Z,2668
2019-01-28T13:31:49.558Z,2664
2019-01-28T13:32:59.662Z,2644
2019-01-28T13:34:09.749Z,2592
2019-01-28T13:35:19.564Z,2540
2019-01-28T13:36:29.658Z,2500
2019-01-28T13:37:39.701Z,2460
2019-01-28T13:38:49.759Z,2432
2019-01-28T13:40:00.067Z,2404
2019-01-28T13:41:09.937Z,2396
2019-01-28T13:42:19.744Z,2388
2019-01-28T13:43:29.806Z,2384
2019-01-28T13:44:39.600Z,2380
2019-01-28T13:45:49.174Z,2380
2019-01-28T13:46:59.232Z,2376
2019-01-28T13:48:09.299Z,2360
2019-01-28T13:49:19.362Z,2336
2019-01-28T13:50:29.428Z,2308
2019-01-28T13:51:39.566Z,2276
2019-01-28T13:52:49.382Z,2260
2019-01-28T13:53:59.452Z,2252
2019-01-28T13:55:09.344Z,2260
2019-01-28T13:56:19.402Z,2276
2019-01-28T13:57:28.952Z,2284
2019-01-28T13:58:39.022Z,2276
2019-01-28T13:59:49.090Z,2252
2019-01-28T14:00:59.184Z,2212
2019-01-28T14:02:09.263Z,2164
2019-01-28T14:03:19.317Z,2108
2019-01-28T14:04:29.403Z,2044
2019-01-28T14:05:39.482Z,1976
2019-01-28T14:06:49.591Z,1900
2019-01-28T14:07:59.648Z,1828
2019-01-28T14:09:09.729Z,1768
2019-01-28T14:10:19.012Z,1716
2019-01-28T14:11:29.161Z,1676
2019-01-28T14:12:38.984Z,1648
2019-01-28T14:13:49.284Z,1632
2019-01-28T14:14:59.584Z,1624
2019-01-28T14:16:09.662Z,1608
2019-01-28T14:17:19.751Z,1596
2019-01-28T14:18:29.618Z,1580
2019-01-28T14:19:46.189Z,1556
2019-01-28T14:21:00.788Z,1520
2019-01-28T14:22:10.844Z,1484
2019-01-28T14:23:20.907Z,1452
2019-01-28T14:24:32.170Z,1436
2019-01-28T14:25:42.257Z,1432
2019-01-28T14:26:52.367Z,1444
2019-01-28T14:28:05.529Z,1472
2019-01-28T14:29:15.782Z,1500
2019-01-28T14:30:25.859Z,1516
2019-01-28T14:31:35.935Z,1520
2019-01-28T14:32:46.028Z,1500
2019-01-28T14:33:56.092Z,1456
2019-01-28T14:35:06.254Z,1408
2019-01-28T14:36:16.958Z,1372
2019-01-28T14:37:26.790Z,1352
2019-01-28T14:38:37.123Z,1352
2019-01-28T14:39:47.202Z,1360
2019-01-28T14:40:57.296Z,1364
2019-01-28T14:42:07.263Z,1368
2019-01-28T14:43:17.387Z,1380
2019-01-28T14:44:27.578Z,1384
2019-01-28T14:45:37.409Z,1380
2019-01-28T14:46:47.525Z,1380
2019-01-28T14:47:57.600Z,1368
2019-01-28T14:49:07.664Z,1352
2019-01-28T14:50:17.923Z,1336
2019-01-28T14:51:27.484Z,1320
2019-01-28T14:52:37.551Z,1304
2019-01-28T14:53:47.633Z,1288
2019-01-28T14:54:58.835Z,1280
2019-01-28T14:56:08.905Z,1272
2019-01-28T14:57:18.987Z,1264
2019-01-28T14:58:28.800Z,1264
2019-01-28T14:59:38.869Z,1256
2019-01-28T15:00:49.024Z,1248
2019-01-28T15:01:59.122Z,1240
2019-01-28T15:03:10.820Z,1228
2019-01-28T15:04:20.619Z,1204
2019-01-28T15:05:30.424Z,1172
2019-01-28T15:06:40.482Z,1124
2019-01-28T15:07:50.635Z,1056
2019-01-28T15:09:01.107Z,984
2019-01-28T15:10:11.179Z,920
2019-01-28T15:11:21.241Z,864
2019-01-28T15:12:31.101Z,812
2019-01-28T15:13:41.166Z,768
2019-01-28T15:14:51.266Z,724
2019-01-28T15:16:01.327Z,680
2019-01-28T15:17:16.433Z,648
2019-01-28T15:18:26.245Z,620
2019-01-28T15:19:36.545Z,592
2019-01-28T15:20:46.647Z,572
2019-01-28T15:21:56.973Z,556
2019-01-28T15:23:07.039Z,528
2019-01-28T15:24:16.908Z,500
2019-01-28T15:25:27.006Z,468
2019-01-28T15:26:37.010Z,444
2019-01-28T15:27:47.119Z,412
2019-01-28T15:28:56.959Z,384
2019-01-28T15:30:07.273Z,356
2019-01-28T15:31:17.582Z,328
2019-01-28T15:32:27.651Z,304
2019-01-28T15:33:37.747Z,280
2019-01-28T15:34:47.887Z,256
2019-01-28T15:35:58.024Z,236
2019-01-28T15:37:09.250Z,220
2019-01-28T15:38:19.319Z,204
2019-01-28T15:39:29.388Z,188
2019-01-28T15:40:39.507Z,172
2019-01-28T15:41:49.350Z,160
2019-01-28T15:42:59.450Z,140
2019-01-28T15:44:09.552Z,128
2019-01-28T15:45:19.809Z,116
2019-01-28T15:46:29.682Z,104
2019-01-28T15:47:39.774Z,92
2019-01-28T15:48:49.868Z,80
2019-01-28T15:49:59.951Z,72
2019-01-28T15:51:18.216Z,60
2019-01-28T15:52:28.020Z,56
2019-01-28T15:53:37.883Z,44
2019-01-28T15:54:47.959Z,44
2019-01-28T15:55:57.766Z,36
2019-01-28T15:57:10.943Z,28
2019-01-28T15:58:21.072Z,28
2019-01-28T15:59:30.696Z,20
2019-01-28T16:00:41.272Z,20
2019-01-28T16:01:51.574Z,16
2019-01-28T16:03:01.663Z,12
2019-01-28T16:04:11.468Z,8
2019-01-28T16:05:21.562Z,12
2019-01-28T16:06:31.727Z,8
2019-01-28T16:07:41.561Z,8
2019-01-28T16:08:51.427Z,4
2019-01-28T16:10:02.456Z,4
2019-01-28T16:11:12.561Z,0
2019-01-28T16:12:22.641Z,4
2019-01-28T16:13:32.731Z,4
2019-01-28T16:14:42.830Z,0
2019-01-28T16:15:53.139Z,4
2019-01-28T16:17:02.998Z,4
2019-01-28T16:18:16.948Z,4
2019-01-28T16:19:27.022Z,0
2019-01-28T16:20:37.121Z,0
2019-01-28T16:21:46.942Z,0
2019-01-28T16:22:57.001Z,0
2019-01-28T16:24:07.071Z,0
2019-01-28T16:25:17.144Z,0
2019-01-28T16:26:27.259Z,0
2019-01-28T16:27:37.347Z,0
2019-01-28T16:28:47.755Z,0
2019-01-28T16:29:57.585Z,0
2019-01-28T16:31:07.660Z,0
2019-01-28T16:32:17.743Z,0
2019-01-28T16:33:28.095Z,0
2019-01-28T16:34:38.464Z,0
2019-01-28T16:35:48.331Z,0
2019-01-28T16:36:58.421Z,0
2019-01-28T16:38:10.337Z,0
2019-01-28T16:39:20.443Z,0
2019-01-28T16:40:30.548Z,0
2019-01-28T16:41:40.378Z,0
2019-01-28T16:42:50.688Z,0
2019-01-28T16:44:01.517Z,0
2019-01-28T16:45:11.609Z,0
2019-01-28T16:46:21.758Z,0
2019-01-28T16:47:31.906Z,0
2019-01-28T16:48:41.542Z,0
2019-01-28T16:49:51.374Z,0
2019-01-28T16:51:01.500Z,0